Terminal Aerodrome Forecast
Issued by NWS

Home | Current Version | Previous Version | Text Only | Print | Product List | Glossary On
Versions: 1 2 3 4 5 6 7 8 9 10 11 12 13 14 15 16
000
FTUS45 KABQ 281100
TAFROW
TAF
KROW 281124Z 2812/2912 36008KT P6SM SCT035 BKN050
     FM281800 01009KT P6SM SCT040 BKN080
     FM290200 VRB05KT P6SM FEW070=

USA.gov is the U.S. government's official web portal to all federal, state and local government web resources and services.